sensor_id;sensor_type;location;lat;lon;timestamp;P1;durP1;ratioP1;P2;durP2;ratioP2
79493;SDS011;68951;53.130;18.104;2023-06-26T00:02:16;6.50;;;3.30;;
79493;SDS011;68951;53.130;18.104;2023-06-26T00:04:43;7.10;;;3.70;;
79493;SDS011;68951;53.130;18.104;2023-06-26T00:07:10;8.60;;;3.60;;
79493;SDS011;68951;53.130;18.104;2023-06-26T00:09:37;6.70;;;3.90;;
79493;SDS011;68951;53.130;18.104;2023-06-26T00:12:04;8.60;;;3.90;;
79493;SDS011;68951;53.130;18.104;2023-06-26T00:14:31;6.60;;;3.60;;
79493;SDS011;68951;53.130;18.104;2023-06-26T00:16:58;7.20;;;3.30;;
79493;SDS011;68951;53.130;18.104;2023-06-26T00:19:25;8.40;;;4.10;;
79493;SDS011;68951;53.130;18.104;2023-06-26T00:21:52;7.20;;;3.50;;
79493;SDS011;68951;53.130;18.104;2023-06-26T00:24:18;7.20;;;3.70;;
79493;SDS011;68951;53.130;18.104;2023-06-26T00:26:46;7.10;;;3.40;;
79493;SDS011;68951;53.130;18.104;2023-06-26T00:29:14;8.60;;;3.90;;
79493;SDS011;68951;53.130;18.104;2023-06-26T00:31:41;6.00;;;3.30;;
79493;SDS011;68951;53.130;18.104;2023-06-26T00:34:08;6.50;;;3.50;;
79493;SDS011;68951;53.130;18.104;2023-06-26T00:36:34;7.50;;;3.50;;
79493;SDS011;68951;53.130;18.104;2023-06-26T00:39:01;7.50;;;3.70;;
79493;SDS011;68951;53.130;18.104;2023-06-26T00:41:29;8.20;;;3.60;;
79493;SDS011;68951;53.130;18.104;2023-06-26T00:43:56;8.60;;;4.10;;
79493;SDS011;68951;53.130;18.104;2023-06-26T00:46:23;7.90;;;4.50;;
79493;SDS011;68951;53.130;18.104;2023-06-26T00:48:52;8.10;;;4.30;;
79493;SDS011;68951;53.130;18.104;2023-06-26T00:51:19;9.30;;;4.30;;
79493;SDS011;68951;53.130;18.104;2023-06-26T00:53:47;6.60;;;3.70;;
79493;SDS011;68951;53.130;18.104;2023-06-26T00:56:15;8.30;;;3.80;;
79493;SDS011;68951;53.130;18.104;2023-06-26T00:58:43;7.80;;;3.70;;
79493;SDS011;68951;53.130;18.104;2023-06-26T01:01:10;9.50;;;4.50;;
79493;SDS011;68951;53.130;18.104;2023-06-26T01:03:43;7.40;;;3.80;;
79493;SDS011;68951;53.130;18.104;2023-06-26T01:06:13;7.70;;;3.80;;
79493;SDS011;68951;53.130;18.104;2023-06-26T01:08:42;7.90;;;3.90;;
79493;SDS011;68951;53.130;18.104;2023-06-26T01:11:10;8.70;;;4.10;;
79493;SDS011;68951;53.130;18.104;2023-06-26T01:13:38;7.20;;;4.30;;
79493;SDS011;68951;53.130;18.104;2023-06-26T01:16:08;8.20;;;4.20;;
79493;SDS011;68951;53.130;18.104;2023-06-26T01:18:37;7.30;;;3.90;;
79493;SDS011;68951;53.130;18.104;2023-06-26T01:21:09;9.60;;;3.70;;
79493;SDS011;68951;53.130;18.104;2023-06-26T01:26:36;10.90;;;4.10;;
79493;SDS011;68951;53.130;18.104;2023-06-26T01:29:06;9.70;;;4.00;;
79493;SDS011;68951;53.130;18.104;2023-06-26T01:31:35;13.00;;;4.70;;
79493;SDS011;68951;53.130;18.104;2023-06-26T01:34:03;14.00;;;5.30;;
79493;SDS011;68951;53.130;18.104;2023-06-26T01:36:30;10.10;;;4.80;;
79493;SDS011;68951;53.130;18.104;2023-06-26T01:38:57;9.40;;;4.90;;
79493;SDS011;68951;53.130;18.104;2023-06-26T01:41:24;10.10;;;5.30;;
79493;SDS011;68951;53.130;18.104;2023-06-26T01:44:11;9.10;;;4.20;;
79493;SDS011;68951;53.130;18.104;2023-06-26T01:47:02;7.50;;;4.10;;
79493;SDS011;68951;53.130;18.104;2023-06-26T01:52:21;8.20;;;4.10;;
79493;SDS011;68951;53.130;18.104;2023-06-26T01:57:38;7.30;;;3.70;;
79493;SDS011;68951;53.130;18.104;2023-06-26T02:00:06;8.40;;;4.60;;
79493;SDS011;68951;53.130;18.104;2023-06-26T02:02:36;9.80;;;4.20;;
79493;SDS011;68951;53.130;18.104;2023-06-26T02:05:03;7.10;;;4.20;;
79493;SDS011;68951;53.130;18.104;2023-06-26T02:07:30;9.90;;;4.10;;
79493;SDS011;68951;53.130;18.104;2023-06-26T02:09:57;7.70;;;4.60;;
79493;SDS011;68951;53.130;18.104;2023-06-26T02:12:24;10.30;;;4.00;;
79493;SDS011;68951;53.130;18.104;2023-06-26T02:14:50;8.00;;;4.00;;
79493;SDS011;68951;53.130;18.104;2023-06-26T02:17:18;8.40;;;3.80;;
79493;SDS011;68951;53.130;18.104;2023-06-26T02:19:44;7.20;;;3.90;;
79493;SDS011;68951;53.130;18.104;2023-06-26T02:22:15;7.40;;;3.70;;
79493;SDS011;68951;53.130;18.104;2023-06-26T02:24:43;9.00;;;4.50;;
79493;SDS011;68951;53.130;18.104;2023-06-26T02:27:10;8.30;;;3.80;;
79493;SDS011;68951;53.130;18.104;2023-06-26T02:29:38;7.60;;;4.60;;
79493;SDS011;68951;53.130;18.104;2023-06-26T02:32:05;7.90;;;4.10;;
79493;SDS011;68951;53.130;18.104;2023-06-26T02:34:33;8.70;;;4.40;;
79493;SDS011;68951;53.130;18.104;2023-06-26T02:37:00;7.50;;;3.90;;
79493;SDS011;68951;53.130;18.104;2023-06-26T02:39:28;8.30;;;4.20;;
79493;SDS011;68951;53.130;18.104;2023-06-26T02:41:55;8.00;;;4.20;;
79493;SDS011;68951;53.130;18.104;2023-06-26T02:44:21;8.50;;;4.10;;
79493;SDS011;68951;53.130;18.104;2023-06-26T02:46:48;8.10;;;4.60;;
79493;SDS011;68951;53.130;18.104;2023-06-26T02:49:15;7.40;;;4.70;;
79493;SDS011;68951;53.130;18.104;2023-06-26T02:51:42;7.80;;;4.40;;
79493;SDS011;68951;53.130;18.104;2023-06-26T02:54:09;8.10;;;4.80;;
79493;SDS011;68951;53.130;18.104;2023-06-26T02:56:35;9.10;;;4.60;;
79493;SDS011;68951;53.130;18.104;2023-06-26T02:59:02;7.00;;;4.10;;
79493;SDS011;68951;53.130;18.104;2023-06-26T03:01:29;8.00;;;4.10;;
79493;SDS011;68951;53.130;18.104;2023-06-26T03:03:56;8.50;;;4.20;;
79493;SDS011;68951;53.130;18.104;2023-06-26T03:06:23;8.10;;;4.50;;
79493;SDS011;68951;53.130;18.104;2023-06-26T03:08:49;9.10;;;4.70;;
79493;SDS011;68951;53.130;18.104;2023-06-26T03:11:16;8.90;;;4.50;;
79493;SDS011;68951;53.130;18.104;2023-06-26T03:13:43;9.80;;;4.90;;
79493;SDS011;68951;53.130;18.104;2023-06-26T03:16:10;10.60;;;5.60;;
79493;SDS011;68951;53.130;18.104;2023-06-26T03:18:36;9.70;;;5.00;;
79493;SDS011;68951;53.130;18.104;2023-06-26T03:21:03;10.70;;;4.70;;
79493;SDS011;68951;53.130;18.104;2023-06-26T03:23:30;9.50;;;5.00;;
79493;SDS011;68951;53.130;18.104;2023-06-26T03:25:57;8.20;;;4.30;;
79493;SDS011;68951;53.130;18.104;2023-06-26T03:28:24;10.20;;;4.80;;
79493;SDS011;68951;53.130;18.104;2023-06-26T03:30:51;10.60;;;5.40;;
79493;SDS011;68951;53.130;18.104;2023-06-26T03:33:18;10.30;;;5.40;;
79493;SDS011;68951;53.130;18.104;2023-06-26T03:35:45;10.30;;;5.90;;
79493;SDS011;68951;53.130;18.104;2023-06-26T03:38:12;10.10;;;5.60;;
79493;SDS011;68951;53.130;18.104;2023-06-26T03:40:38;12.60;;;5.60;;
79493;SDS011;68951;53.130;18.104;2023-06-26T03:43:05;12.00;;;5.70;;
79493;SDS011;68951;53.130;18.104;2023-06-26T03:45:32;12.20;;;5.00;;
79493;SDS011;68951;53.130;18.104;2023-06-26T03:47:59;11.50;;;5.30;;
79493;SDS011;68951;53.130;18.104;2023-06-26T03:50:26;11.20;;;4.60;;
79493;SDS011;68951;53.130;18.104;2023-06-26T03:52:53;13.80;;;5.20;;
79493;SDS011;68951;53.130;18.104;2023-06-26T03:55:21;11.00;;;5.20;;
79493;SDS011;68951;53.130;18.104;2023-06-26T03:57:50;10.60;;;5.60;;
79493;SDS011;68951;53.130;18.104;2023-06-26T04:00:17;9.10;;;5.40;;
79493;SDS011;68951;53.130;18.104;2023-06-26T04:02:44;11.20;;;5.50;;
79493;SDS011;68951;53.130;18.104;2023-06-26T04:05:11;8.40;;;4.70;;
79493;SDS011;68951;53.130;18.104;2023-06-26T04:07:38;9.50;;;4.50;;
79493;SDS011;68951;53.130;18.104;2023-06-26T04:10:06;10.90;;;4.20;;
79493;SDS011;68951;53.130;18.104;2023-06-26T04:12:33;8.70;;;4.70;;
79493;SDS011;68951;53.130;18.104;2023-06-26T04:15:00;9.50;;;5.10;;
79493;SDS011;68951;53.130;18.104;2023-06-26T04:17:27;11.20;;;5.70;;
79493;SDS011;68951;53.130;18.104;2023-06-26T04:19:54;9.20;;;5.60;;
79493;SDS011;68951;53.130;18.104;2023-06-26T04:22:20;11.10;;;6.10;;
79493;SDS011;68951;53.130;18.104;2023-06-26T04:24:47;11.50;;;5.80;;
79493;SDS011;68951;53.130;18.104;2023-06-26T04:27:14;10.80;;;5.10;;
79493;SDS011;68951;53.130;18.104;2023-06-26T04:29:41;10.20;;;5.10;;
79493;SDS011;68951;53.130;18.104;2023-06-26T04:32:07;9.90;;;5.00;;
79493;SDS011;68951;53.130;18.104;2023-06-26T04:34:34;11.80;;;5.60;;
79493;SDS011;68951;53.130;18.104;2023-06-26T04:37:02;10.30;;;5.70;;
79493;SDS011;68951;53.130;18.104;2023-06-26T04:39:32;9.50;;;5.60;;
79493;SDS011;68951;53.130;18.104;2023-06-26T04:41:59;9.70;;;5.40;;
79493;SDS011;68951;53.130;18.104;2023-06-26T04:44:26;9.60;;;4.90;;
79493;SDS011;68951;53.130;18.104;2023-06-26T04:46:53;7.70;;;5.00;;
79493;SDS011;68951;53.130;18.104;2023-06-26T04:49:20;9.10;;;4.80;;
79493;SDS011;68951;53.130;18.104;2023-06-26T04:51:46;9.90;;;4.90;;
79493;SDS011;68951;53.130;18.104;2023-06-26T04:54:14;12.40;;;6.10;;
79493;SDS011;68951;53.130;18.104;2023-06-26T04:56:42;9.70;;;5.70;;
79493;SDS011;68951;53.130;18.104;2023-06-26T04:59:10;10.30;;;5.60;;
79493;SDS011;68951;53.130;18.104;2023-06-26T05:01:39;9.30;;;6.00;;
79493;SDS011;68951;53.130;18.104;2023-06-26T05:04:07;10.50;;;5.50;;
79493;SDS011;68951;53.130;18.104;2023-06-26T05:06:34;10.40;;;5.20;;
79493;SDS011;68951;53.130;18.104;2023-06-26T05:09:01;8.60;;;4.80;;
79493;SDS011;68951;53.130;18.104;2023-06-26T05:11:27;8.10;;;4.80;;
79493;SDS011;68951;53.130;18.104;2023-06-26T05:13:54;7.80;;;4.60;;
79493;SDS011;68951;53.130;18.104;2023-06-26T05:16:21;8.00;;;4.70;;
79493;SDS011;68951;53.130;18.104;2023-06-26T05:18:48;9.70;;;5.30;;
79493;SDS011;68951;53.130;18.104;2023-06-26T05:21:15;9.00;;;5.50;;
79493;SDS011;68951;53.130;18.104;2023-06-26T05:23:43;11.70;;;5.40;;
79493;SDS011;68951;53.130;18.104;2023-06-26T05:26:12;9.70;;;5.90;;
79493;SDS011;68951;53.130;18.104;2023-06-26T05:28:40;9.40;;;5.30;;
79493;SDS011;68951;53.130;18.104;2023-06-26T05:31:07;9.00;;;5.20;;
79493;SDS011;68951;53.130;18.104;2023-06-26T05:33:35;9.70;;;5.80;;
79493;SDS011;68951;53.130;18.104;2023-06-26T05:36:04;9.20;;;5.40;;
79493;SDS011;68951;53.130;18.104;2023-06-26T05:38:33;8.20;;;5.00;;
79493;SDS011;68951;53.130;18.104;2023-06-26T05:41:01;8.70;;;5.30;;
79493;SDS011;68951;53.130;18.104;2023-06-26T05:43:28;9.30;;;5.70;;
79493;SDS011;68951;53.130;18.104;2023-06-26T05:45:56;8.70;;;4.80;;
79493;SDS011;68951;53.130;18.104;2023-06-26T05:48:26;8.90;;;5.60;;
79493;SDS011;68951;53.130;18.104;2023-06-26T05:50:54;8.30;;;5.50;;
79493;SDS011;68951;53.130;18.104;2023-06-26T05:53:21;13.20;;;5.90;;
79493;SDS011;68951;53.130;18.104;2023-06-26T05:55:48;9.50;;;5.70;;
79493;SDS011;68951;53.130;18.104;2023-06-26T05:58:16;9.40;;;6.20;;
79493;SDS011;68951;53.130;18.104;2023-06-26T06:00:44;10.10;;;5.60;;
79493;SDS011;68951;53.130;18.104;2023-06-26T06:03:11;7.60;;;4.80;;
79493;SDS011;68951;53.130;18.104;2023-06-26T06:05:38;10.20;;;5.90;;
79493;SDS011;68951;53.130;18.104;2023-06-26T06:08:05;10.00;;;5.60;;
79493;SDS011;68951;53.130;18.104;2023-06-26T06:10:32;10.70;;;6.20;;
79493;SDS011;68951;53.130;18.104;2023-06-26T06:12:58;9.00;;;5.80;;
79493;SDS011;68951;53.130;18.104;2023-06-26T06:15:25;8.70;;;6.20;;
79493;SDS011;68951;53.130;18.104;2023-06-26T06:17:52;10.00;;;6.80;;
79493;SDS011;68951;53.130;18.104;2023-06-26T06:20:19;11.90;;;6.00;;
79493;SDS011;68951;53.130;18.104;2023-06-26T06:22:46;10.00;;;5.50;;
79493;SDS011;68951;53.130;18.104;2023-06-26T06:25:15;9.30;;;5.90;;
79493;SDS011;68951;53.130;18.104;2023-06-26T06:27:42;9.40;;;5.30;;
79493;SDS011;68951;53.130;18.104;2023-06-26T06:30:10;9.70;;;5.40;;
79493;SDS011;68951;53.130;18.104;2023-06-26T06:32:37;9.30;;;5.60;;
79493;SDS011;68951;53.130;18.104;2023-06-26T06:35:04;10.00;;;5.90;;
79493;SDS011;68951;53.130;18.104;2023-06-26T06:37:37;8.50;;;5.20;;
79493;SDS011;68951;53.130;18.104;2023-06-26T06:40:05;8.40;;;5.20;;
79493;SDS011;68951;53.130;18.104;2023-06-26T06:42:33;9.90;;;5.60;;
79493;SDS011;68951;53.130;18.104;2023-06-26T06:45:04;8.30;;;5.00;;
79493;SDS011;68951;53.130;18.104;2023-06-26T06:47:32;9.00;;;5.10;;
79493;SDS011;68951;53.130;18.104;2023-06-26T06:50:00;8.40;;;5.10;;
79493;SDS011;68951;53.130;18.104;2023-06-26T06:52:38;8.10;;;4.90;;
79493;SDS011;68951;53.130;18.104;2023-06-26T06:55:07;8.70;;;5.10;;
79493;SDS011;68951;53.130;18.104;2023-06-26T06:57:36;9.50;;;4.80;;
79493;SDS011;68951;53.130;18.104;2023-06-26T07:00:07;8.70;;;5.00;;
79493;SDS011;68951;53.130;18.104;2023-06-26T07:02:37;7.50;;;5.00;;
79493;SDS011;68951;53.130;18.104;2023-06-26T07:05:05;7.70;;;5.00;;
79493;SDS011;68951;53.130;18.104;2023-06-26T07:07:34;8.00;;;5.30;;
79493;SDS011;68951;53.130;18.104;2023-06-26T07:10:06;9.90;;;5.50;;
79493;SDS011;68951;53.130;18.104;2023-06-26T07:12:35;10.40;;;5.60;;
79493;SDS011;68951;53.130;18.104;2023-06-26T07:15:04;11.40;;;6.30;;
79493;SDS011;68951;53.130;18.104;2023-06-26T07:17:32;8.80;;;5.40;;
79493;SDS011;68951;53.130;18.104;2023-06-26T07:20:01;10.70;;;5.80;;
79493;SDS011;68951;53.130;18.104;2023-06-26T07:22:35;9.40;;;4.90;;
79493;SDS011;68951;53.130;18.104;2023-06-26T07:25:02;8.70;;;4.90;;
79493;SDS011;68951;53.130;18.104;2023-06-26T07:27:31;10.70;;;5.20;;
79493;SDS011;68951;53.130;18.104;2023-06-26T07:29:59;8.50;;;5.30;;
79493;SDS011;68951;53.130;18.104;2023-06-26T07:32:26;9.30;;;5.00;;
79493;SDS011;68951;53.130;18.104;2023-06-26T07:34:53;9.30;;;5.80;;
79493;SDS011;68951;53.130;18.104;2023-06-26T07:37:20;8.50;;;5.30;;
79493;SDS011;68951;53.130;18.104;2023-06-26T07:39:47;9.10;;;5.90;;
79493;SDS011;68951;53.130;18.104;2023-06-26T07:42:15;8.30;;;5.20;;
79493;SDS011;68951;53.130;18.104;2023-06-26T07:44:42;9.60;;;5.80;;
79493;SDS011;68951;53.130;18.104;2023-06-26T07:47:10;8.70;;;5.20;;
79493;SDS011;68951;53.130;18.104;2023-06-26T07:49:39;8.20;;;5.10;;
79493;SDS011;68951;53.130;18.104;2023-06-26T07:52:07;9.60;;;5.40;;
79493;SDS011;68951;53.130;18.104;2023-06-26T07:54:37;8.10;;;5.40;;
79493;SDS011;68951;53.130;18.104;2023-06-26T07:57:05;9.20;;;4.50;;
79493;SDS011;68951;53.130;18.104;2023-06-26T07:59:39;8.50;;;5.40;;
79493;SDS011;68951;53.130;18.104;2023-06-26T08:02:06;8.90;;;5.20;;
79493;SDS011;68951;53.130;18.104;2023-06-26T08:04:33;8.30;;;5.50;;
79493;SDS011;68951;53.130;18.104;2023-06-26T08:07:01;10.90;;;5.60;;
79493;SDS011;68951;53.130;18.104;2023-06-26T08:09:29;8.90;;;5.40;;
79493;SDS011;68951;53.130;18.104;2023-06-26T08:11:57;8.90;;;5.00;;
79493;SDS011;68951;53.130;18.104;2023-06-26T08:14:24;8.90;;;5.00;;
79493;SDS011;68951;53.130;18.104;2023-06-26T08:16:51;8.00;;;5.40;;
79493;SDS011;68951;53.130;18.104;2023-06-26T08:19:18;8.60;;;5.10;;
79493;SDS011;68951;53.130;18.104;2023-06-26T08:21:46;9.10;;;5.20;;
79493;SDS011;68951;53.130;18.104;2023-06-26T08:24:13;8.60;;;5.20;;
79493;SDS011;68951;53.130;18.104;2023-06-26T08:26:44;8.30;;;5.00;;
79493;SDS011;68951;53.130;18.104;2023-06-26T08:29:12;8.60;;;5.40;;
79493;SDS011;68951;53.130;18.104;2023-06-26T08:31:40;8.20;;;5.10;;
79493;SDS011;68951;53.130;18.104;2023-06-26T08:34:07;7.20;;;4.10;;
79493;SDS011;68951;53.130;18.104;2023-06-26T08:36:34;7.40;;;4.00;;
79493;SDS011;68951;53.130;18.104;2023-06-26T08:39:02;7.30;;;4.30;;
79493;SDS011;68951;53.130;18.104;2023-06-26T08:41:29;8.50;;;4.40;;
79493;SDS011;68951;53.130;18.104;2023-06-26T08:43:56;6.80;;;4.20;;
79493;SDS011;68951;53.130;18.104;2023-06-26T08:46:23;6.80;;;3.50;;
79493;SDS011;68951;53.130;18.104;2023-06-26T08:48:56;6.70;;;4.00;;
79493;SDS011;68951;53.130;18.104;2023-06-26T08:51:25;7.50;;;4.60;;
79493;SDS011;68951;53.130;18.104;2023-06-26T08:53:59;7.80;;;4.60;;
79493;SDS011;68951;53.130;18.104;2023-06-26T08:56:36;8.30;;;4.30;;
79493;SDS011;68951;53.130;18.104;2023-06-26T08:59:06;8.50;;;5.10;;
79493;SDS011;68951;53.130;18.104;2023-06-26T09:01:33;9.60;;;4.40;;
79493;SDS011;68951;53.130;18.104;2023-06-26T09:04:01;7.10;;;4.50;;
79493;SDS011;68951;53.130;18.104;2023-06-26T09:06:29;6.10;;;3.80;;
79493;SDS011;68951;53.130;18.104;2023-06-26T09:08:56;6.20;;;3.80;;
79493;SDS011;68951;53.130;18.104;2023-06-26T09:11:23;8.40;;;3.70;;
79493;SDS011;68951;53.130;18.104;2023-06-26T09:13:50;8.00;;;4.10;;
79493;SDS011;68951;53.130;18.104;2023-06-26T09:16:24;7.30;;;3.60;;
79493;SDS011;68951;53.130;18.104;2023-06-26T09:18:53;6.10;;;3.40;;
79493;SDS011;68951;53.130;18.104;2023-06-26T09:21:21;6.20;;;3.60;;
79493;SDS011;68951;53.130;18.104;2023-06-26T09:23:52;6.00;;;3.50;;
79493;SDS011;68951;53.130;18.104;2023-06-26T09:26:21;6.70;;;2.90;;
79493;SDS011;68951;53.130;18.104;2023-06-26T09:28:49;5.30;;;3.00;;
79493;SDS011;68951;53.130;18.104;2023-06-26T09:31:16;9.40;;;3.70;;
79493;SDS011;68951;53.130;18.104;2023-06-26T09:33:43;6.50;;;4.40;;
79493;SDS011;68951;53.130;18.104;2023-06-26T09:36:20;7.70;;;4.40;;
79493;SDS011;68951;53.130;18.104;2023-06-26T09:38:50;7.20;;;3.90;;
79493;SDS011;68951;53.130;18.104;2023-06-26T09:41:17;7.40;;;4.40;;
79493;SDS011;68951;53.130;18.104;2023-06-26T09:43:48;7.50;;;4.50;;
79493;SDS011;68951;53.130;18.104;2023-06-26T09:46:26;7.30;;;5.00;;
79493;SDS011;68951;53.130;18.104;2023-06-26T09:49:10;8.40;;;4.30;;
79493;SDS011;68951;53.130;18.104;2023-06-26T09:51:39;6.40;;;4.20;;
79493;SDS011;68951;53.130;18.104;2023-06-26T09:54:08;6.10;;;4.10;;
79493;SDS011;68951;53.130;18.104;2023-06-26T09:56:36;8.20;;;4.60;;
79493;SDS011;68951;53.130;18.104;2023-06-26T09:59:04;7.20;;;4.10;;
79493;SDS011;68951;53.130;18.104;2023-06-26T10:01:33;7.70;;;4.10;;
79493;SDS011;68951;53.130;18.104;2023-06-26T10:04:00;6.70;;;4.30;;
79493;SDS011;68951;53.130;18.104;2023-06-26T10:06:31;6.20;;;4.20;;
79493;SDS011;68951;53.130;18.104;2023-06-26T10:09:02;5.50;;;3.90;;
79493;SDS011;68951;53.130;18.104;2023-06-26T10:11:51;13.40;;;5.50;;
79493;SDS011;68951;53.130;18.104;2023-06-26T10:14:27;7.00;;;4.40;;
79493;SDS011;68951;53.130;18.104;2023-06-26T10:16:59;12.10;;;4.60;;
79493;SDS011;68951;53.130;18.104;2023-06-26T10:19:29;8.30;;;4.80;;
79493;SDS011;68951;53.130;18.104;2023-06-26T10:22:01;7.80;;;4.80;;
79493;SDS011;68951;53.130;18.104;2023-06-26T10:24:33;7.90;;;4.40;;
79493;SDS011;68951;53.130;18.104;2023-06-26T10:27:08;7.50;;;4.60;;
79493;SDS011;68951;53.130;18.104;2023-06-26T10:29:47;9.40;;;5.10;;
79493;SDS011;68951;53.130;18.104;2023-06-26T10:32:20;7.10;;;4.50;;
79493;SDS011;68951;53.130;18.104;2023-06-26T10:34:49;8.50;;;5.00;;
79493;SDS011;68951;53.130;18.104;2023-06-26T10:37:16;6.80;;;4.40;;
79493;SDS011;68951;53.130;18.104;2023-06-26T10:39:50;7.10;;;3.80;;
79493;SDS011;68951;53.130;18.104;2023-06-26T10:42:34;9.10;;;4.40;;
79493;SDS011;68951;53.130;18.104;2023-06-26T10:45:28;6.90;;;4.30;;
79493;SDS011;68951;53.130;18.104;2023-06-26T10:47:57;5.80;;;4.20;;
79493;SDS011;68951;53.130;18.104;2023-06-26T10:50:29;7.40;;;5.00;;
79493;SDS011;68951;53.130;18.104;2023-06-26T10:56:01;6.70;;;4.80;;
79493;SDS011;68951;53.130;18.104;2023-06-26T11:01:24;6.70;;;4.70;;
79493;SDS011;68951;53.130;18.104;2023-06-26T11:06:24;7.70;;;4.70;;
79493;SDS011;68951;53.130;18.104;2023-06-26T11:08:53;7.80;;;4.60;;
79493;SDS011;68951;53.130;18.104;2023-06-26T11:14:30;6.60;;;4.50;;
79493;SDS011;68951;53.130;18.104;2023-06-26T11:16:58;7.10;;;4.80;;
79493;SDS011;68951;53.130;18.104;2023-06-26T11:19:26;6.50;;;5.30;;
79493;SDS011;68951;53.130;18.104;2023-06-26T11:22:04;8.60;;;5.20;;
79493;SDS011;68951;53.130;18.104;2023-06-26T11:24:32;8.10;;;4.80;;
79493;SDS011;68951;53.130;18.104;2023-06-26T11:27:00;6.50;;;4.90;;
79493;SDS011;68951;53.130;18.104;2023-06-26T11:29:29;6.40;;;4.30;;
79493;SDS011;68951;53.130;18.104;2023-06-26T11:32:01;6.90;;;5.10;;
79493;SDS011;68951;53.130;18.104;2023-06-26T11:34:30;6.30;;;5.00;;
79493;SDS011;68951;53.130;18.104;2023-06-26T11:36:57;8.90;;;5.30;;
79493;SDS011;68951;53.130;18.104;2023-06-26T11:39:27;7.80;;;5.70;;
79493;SDS011;68951;53.130;18.104;2023-06-26T11:41:54;7.60;;;5.30;;
79493;SDS011;68951;53.130;18.104;2023-06-26T11:44:21;6.70;;;5.20;;
79493;SDS011;68951;53.130;18.104;2023-06-26T11:46:51;6.30;;;4.50;;
79493;SDS011;68951;53.130;18.104;2023-06-26T11:49:18;5.80;;;4.60;;
79493;SDS011;68951;53.130;18.104;2023-06-26T11:51:47;6.00;;;4.10;;
79493;SDS011;68951;53.130;18.104;2023-06-26T11:54:13;6.40;;;4.40;;
79493;SDS011;68951;53.130;18.104;2023-06-26T11:56:41;7.60;;;5.30;;
79493;SDS011;68951;53.130;18.104;2023-06-26T11:59:11;6.30;;;4.90;;
79493;SDS011;68951;53.130;18.104;2023-06-26T12:01:41;9.20;;;5.10;;
79493;SDS011;68951;53.130;18.104;2023-06-26T12:04:15;7.80;;;5.80;;
79493;SDS011;68951;53.130;18.104;2023-06-26T12:06:47;7.70;;;5.30;;
79493;SDS011;68951;53.130;18.104;2023-06-26T12:09:21;8.90;;;5.20;;
79493;SDS011;68951;53.130;18.104;2023-06-26T12:11:52;6.10;;;4.50;;
79493;SDS011;68951;53.130;18.104;2023-06-26T12:14:22;7.90;;;5.30;;
79493;SDS011;68951;53.130;18.104;2023-06-26T12:16:52;7.10;;;5.20;;
79493;SDS011;68951;53.130;18.104;2023-06-26T12:19:24;6.10;;;4.70;;
79493;SDS011;68951;53.130;18.104;2023-06-26T12:21:55;8.40;;;5.20;;
79493;SDS011;68951;53.130;18.104;2023-06-26T12:24:23;10.60;;;5.30;;
79493;SDS011;68951;53.130;18.104;2023-06-26T12:26:53;7.80;;;5.10;;
79493;SDS011;68951;53.130;18.104;2023-06-26T12:29:31;8.10;;;5.60;;
79493;SDS011;68951;53.130;18.104;2023-06-26T12:32:00;8.20;;;5.50;;
79493;SDS011;68951;53.130;18.104;2023-06-26T12:34:32;8.40;;;5.40;;
79493;SDS011;68951;53.130;18.104;2023-06-26T12:37:18;7.20;;;5.10;;
79493;SDS011;68951;53.130;18.104;2023-06-26T12:39:53;6.30;;;5.00;;
79493;SDS011;68951;53.130;18.104;2023-06-26T12:42:22;7.40;;;5.40;;
79493;SDS011;68951;53.130;18.104;2023-06-26T12:44:53;9.20;;;5.10;;
79493;SDS011;68951;53.130;18.104;2023-06-26T12:47:25;6.20;;;4.80;;
79493;SDS011;68951;53.130;18.104;2023-06-26T12:49:53;7.30;;;4.90;;
79493;SDS011;68951;53.130;18.104;2023-06-26T12:52:20;6.90;;;5.20;;
79493;SDS011;68951;53.130;18.104;2023-06-26T12:54:52;8.40;;;5.10;;
79493;SDS011;68951;53.130;18.104;2023-06-26T12:57:20;6.40;;;5.20;;
79493;SDS011;68951;53.130;18.104;2023-06-26T12:59:47;6.00;;;4.20;;
79493;SDS011;68951;53.130;18.104;2023-06-26T13:02:14;6.40;;;4.90;;
79493;SDS011;68951;53.130;18.104;2023-06-26T13:04:41;6.70;;;5.50;;
79493;SDS011;68951;53.130;18.104;2023-06-26T13:07:08;7.20;;;4.50;;
79493;SDS011;68951;53.130;18.104;2023-06-26T13:09:36;7.30;;;4.60;;
79493;SDS011;68951;53.130;18.104;2023-06-26T13:12:05;6.20;;;4.70;;
79493;SDS011;68951;53.130;18.104;2023-06-26T13:14:32;7.30;;;4.50;;
79493;SDS011;68951;53.130;18.104;2023-06-26T13:17:03;7.60;;;5.30;;
79493;SDS011;68951;53.130;18.104;2023-06-26T13:19:30;9.10;;;5.60;;
79493;SDS011;68951;53.130;18.104;2023-06-26T13:21:57;7.20;;;4.40;;
79493;SDS011;68951;53.130;18.104;2023-06-26T13:24:24;7.00;;;4.50;;
79493;SDS011;68951;53.130;18.104;2023-06-26T13:26:51;6.40;;;5.40;;
79493;SDS011;68951;53.130;18.104;2023-06-26T13:29:18;6.60;;;5.60;;
79493;SDS011;68951;53.130;18.104;2023-06-26T13:31:45;6.40;;;5.20;;
79493;SDS011;68951;53.130;18.104;2023-06-26T13:34:20;7.90;;;4.90;;
79493;SDS011;68951;53.130;18.104;2023-06-26T13:36:51;7.00;;;5.40;;
79493;SDS011;68951;53.130;18.104;2023-06-26T13:39:18;7.80;;;5.20;;
79493;SDS011;68951;53.130;18.104;2023-06-26T13:41:45;8.10;;;5.50;;
79493;SDS011;68951;53.130;18.104;2023-06-26T13:44:12;9.00;;;5.10;;
79493;SDS011;68951;53.130;18.104;2023-06-26T13:46:39;8.00;;;5.70;;
79493;SDS011;68951;53.130;18.104;2023-06-26T13:49:06;6.80;;;5.30;;
79493;SDS011;68951;53.130;18.104;2023-06-26T13:51:33;8.50;;;5.20;;
79493;SDS011;68951;53.130;18.104;2023-06-26T13:53:59;8.50;;;5.40;;
79493;SDS011;68951;53.130;18.104;2023-06-26T13:56:27;5.80;;;4.50;;
79493;SDS011;68951;53.130;18.104;2023-06-26T13:58:56;5.70;;;4.30;;
79493;SDS011;68951;53.130;18.104;2023-06-26T14:01:24;7.20;;;5.70;;
79493;SDS011;68951;53.130;18.104;2023-06-26T14:03:51;5.90;;;4.10;;
79493;SDS011;68951;53.130;18.104;2023-06-26T14:06:18;6.20;;;4.90;;
79493;SDS011;68951;53.130;18.104;2023-06-26T14:08:45;6.00;;;4.90;;
79493;SDS011;68951;53.130;18.104;2023-06-26T14:11:12;6.60;;;5.20;;
79493;SDS011;68951;53.130;18.104;2023-06-26T14:13:39;6.60;;;4.60;;
79493;SDS011;68951;53.130;18.104;2023-06-26T14:16:06;5.60;;;4.10;;
79493;SDS011;68951;53.130;18.104;2023-06-26T14:18:33;7.50;;;5.10;;
79493;SDS011;68951;53.130;18.104;2023-06-26T14:21:01;6.10;;;4.80;;
79493;SDS011;68951;53.130;18.104;2023-06-26T14:23:28;8.00;;;4.80;;
79493;SDS011;68951;53.130;18.104;2023-06-26T14:25:55;7.20;;;4.70;;
79493;SDS011;68951;53.130;18.104;2023-06-26T14:28:22;6.20;;;4.50;;
79493;SDS011;68951;53.130;18.104;2023-06-26T14:30:49;9.10;;;5.10;;
79493;SDS011;68951;53.130;18.104;2023-06-26T14:33:15;5.80;;;5.10;;
79493;SDS011;68951;53.130;18.104;2023-06-26T14:35:42;8.00;;;4.60;;
79493;SDS011;68951;53.130;18.104;2023-06-26T14:38:09;6.80;;;4.40;;
79493;SDS011;68951;53.130;18.104;2023-06-26T14:40:36;6.40;;;5.30;;
79493;SDS011;68951;53.130;18.104;2023-06-26T14:43:03;6.90;;;4.70;;
79493;SDS011;68951;53.130;18.104;2023-06-26T14:45:29;7.30;;;5.00;;
79493;SDS011;68951;53.130;18.104;2023-06-26T14:47:56;5.80;;;4.20;;
79493;SDS011;68951;53.130;18.104;2023-06-26T14:50:23;6.30;;;5.00;;
79493;SDS011;68951;53.130;18.104;2023-06-26T14:52:50;5.40;;;3.80;;
79493;SDS011;68951;53.130;18.104;2023-06-26T14:55:17;6.30;;;4.20;;
79493;SDS011;68951;53.130;18.104;2023-06-26T14:57:43;7.10;;;4.50;;
79493;SDS011;68951;53.130;18.104;2023-06-26T15:00:11;6.50;;;4.90;;
79493;SDS011;68951;53.130;18.104;2023-06-26T15:02:38;5.70;;;4.40;;